createdAt,value
2023-05-16T00:01:59.924Z,99.90
2023-05-16T00:04:27.486Z,99.90
2023-05-16T00:06:57.013Z,99.90
2023-05-16T00:09:23.743Z,99.90
2023-05-16T00:11:51.182Z,99.90
2023-05-16T00:14:19.206Z,99.90
2023-05-16T00:16:47.398Z,99.90
2023-05-16T00:19:14.181Z,99.90
2023-05-16T00:21:40.880Z,99.90
2023-05-16T00:24:07.612Z,99.90
2023-05-16T00:26:34.296Z,99.90
2023-05-16T00:29:00.945Z,99.90
2023-05-16T00:31:28.000Z,99.90
2023-05-16T00:33:54.881Z,99.90
2023-05-16T00:36:23.806Z,99.90
2023-05-16T00:38:50.721Z,99.90
2023-05-16T00:41:17.891Z,99.90
2023-05-16T00:43:45.107Z,99.90
2023-05-16T00:46:11.905Z,99.90
2023-05-16T00:48:38.710Z,99.90
2023-05-16T00:51:09.329Z,99.90
2023-05-16T00:53:37.098Z,99.90
2023-05-16T00:56:03.892Z,99.90
2023-05-16T00:58:32.270Z,99.90
2023-05-16T01:00:58.919Z,99.90
2023-05-16T01:03:25.749Z,99.90
2023-05-16T01:05:53.763Z,99.90
2023-05-16T01:08:21.306Z,99.90
2023-05-16T01:11:00.744Z,99.90
2023-05-16T01:13:32.125Z,99.90
2023-05-16T01:16:09.786Z,99.90
2023-05-16T01:18:43.372Z,99.90
2023-05-16T01:21:16.277Z,99.90
2023-05-16T01:23:45.588Z,99.90
2023-05-16T01:26:18.886Z,99.90
2023-05-16T01:28:46.842Z,99.90
2023-05-16T01:31:13.719Z,99.90
2023-05-16T01:33:40.726Z,99.90
2023-05-16T01:36:17.071Z,99.90
2023-05-16T01:38:59.692Z,99.90
2023-05-16T01:41:45.338Z,99.90
2023-05-16T01:44:17.659Z,99.90
2023-05-16T01:46:48.308Z,99.90
2023-05-16T01:49:25.860Z,99.90
2023-05-16T01:51:54.960Z,99.90
2023-05-16T01:54:23.564Z,99.90
2023-05-16T01:56:54.365Z,99.90
2023-05-16T01:59:22.197Z,99.90
2023-05-16T02:01:49.202Z,99.90
2023-05-16T02:04:15.985Z,99.90
2023-05-16T02:06:43.504Z,99.90
2023-05-16T02:09:10.210Z,99.90
2023-05-16T02:11:36.728Z,99.90
2023-05-16T02:14:03.452Z,99.90
2023-05-16T02:16:31.545Z,99.90
2023-05-16T02:18:58.115Z,99.90
2023-05-16T02:21:25.227Z,99.90
2023-05-16T02:23:51.820Z,99.90
2023-05-16T02:26:18.406Z,99.90
2023-05-16T02:28:45.052Z,99.90
2023-05-16T02:31:11.812Z,99.90
2023-05-16T02:33:38.410Z,99.90
2023-05-16T02:36:04.994Z,99.90
2023-05-16T02:38:31.612Z,99.90
2023-05-16T02:40:58.197Z,99.90
2023-05-16T02:43:24.761Z,99.90
2023-05-16T02:45:51.600Z,99.90
2023-05-16T02:48:18.246Z,99.90
2023-05-16T02:50:44.877Z,99.90
2023-05-16T02:53:11.586Z,99.90
2023-05-16T02:55:38.342Z,99.90
2023-05-16T02:58:05.157Z,99.90
2023-05-16T03:00:31.833Z,99.90
2023-05-16T03:02:58.550Z,99.90
2023-05-16T03:05:27.149Z,99.90
2023-05-16T03:07:54.277Z,99.90
2023-05-16T03:10:20.916Z,99.90
2023-05-16T03:12:47.566Z,99.90
2023-05-16T03:15:14.229Z,99.90
2023-05-16T03:17:40.831Z,99.90
2023-05-16T03:20:08.967Z,99.90
2023-05-16T03:22:35.832Z,99.90
2023-05-16T03:25:02.710Z,99.90
2023-05-16T03:27:29.552Z,99.90
2023-05-16T03:29:56.179Z,99.90
2023-05-16T03:32:22.860Z,99.90
2023-05-16T03:34:49.851Z,99.90
2023-05-16T03:37:16.408Z,99.90
2023-05-16T03:39:43.200Z,99.90
2023-05-16T03:44:55.957Z,99.90
2023-05-16T03:47:22.719Z,99.90
2023-05-16T03:49:49.607Z,99.90
2023-05-16T03:52:16.268Z,99.90
2023-05-16T03:54:42.960Z,99.90
2023-05-16T03:57:09.606Z,99.90
2023-05-16T03:59:36.393Z,99.90
2023-05-16T04:02:03.231Z,99.90
2023-05-16T04:04:30.038Z,99.90
2023-05-16T04:06:56.807Z,99.90
2023-05-16T04:09:23.624Z,99.90
2023-05-16T04:11:50.466Z,99.90
2023-05-16T04:14:17.235Z,99.90
2023-05-16T04:16:44.009Z,99.90
2023-05-16T04:19:10.663Z,99.90
2023-05-16T04:21:37.365Z,99.90
2023-05-16T04:24:04.032Z,99.90
2023-05-16T04:26:31.890Z,99.90
2023-05-16T04:29:00.121Z,99.90
2023-05-16T04:31:27.227Z,99.90
2023-05-16T04:33:54.236Z,99.90
2023-05-16T04:36:21.474Z,99.90
2023-05-16T04:38:48.160Z,99.90
2023-05-16T04:41:15.071Z,99.90
2023-05-16T04:43:42.065Z,99.90
2023-05-16T04:46:10.013Z,99.90
2023-05-16T04:48:36.660Z,99.90
2023-05-16T04:51:03.345Z,99.90
2023-05-16T04:53:29.996Z,99.90
2023-05-16T04:55:56.590Z,99.90
2023-05-16T04:58:24.116Z,99.90
2023-05-16T05:00:54.455Z,99.90
2023-05-16T05:03:24.216Z,99.90
2023-05-16T05:05:51.835Z,99.90
2023-05-16T05:08:19.170Z,99.90
2023-05-16T05:10:45.836Z,99.90
2023-05-16T05:13:12.699Z,99.90
2023-05-16T05:15:39.637Z,99.90
2023-05-16T05:18:06.580Z,99.90
2023-05-16T05:20:33.281Z,99.90
2023-05-16T05:23:00.051Z,99.90
2023-05-16T05:25:27.026Z,99.90
2023-05-16T05:27:53.910Z,99.90
2023-05-16T05:30:20.990Z,99.90
2023-05-16T05:32:47.789Z,99.90
2023-05-16T05:35:15.697Z,99.90
2023-05-16T05:37:42.681Z,99.90
2023-05-16T05:40:09.725Z,99.90
2023-05-16T05:42:39.126Z,99.90
2023-05-16T05:45:06.485Z,99.90
2023-05-16T05:47:33.475Z,99.90
2023-05-16T05:50:00.542Z,99.90
2023-05-16T05:52:28.495Z,99.90
2023-05-16T05:54:55.287Z,99.90
2023-05-16T05:57:24.664Z,99.90
2023-05-16T05:59:51.523Z,99.90
2023-05-16T06:02:18.580Z,99.90
2023-05-16T06:04:45.529Z,99.90
2023-05-16T06:07:12.919Z,99.90
2023-05-16T06:09:39.605Z,99.90
2023-05-16T06:12:06.736Z,99.90
2023-05-16T06:14:33.548Z,99.90
2023-05-16T06:17:00.459Z,99.90
2023-05-16T06:19:27.376Z,99.90
2023-05-16T06:21:54.268Z,99.90
2023-05-16T06:24:21.032Z,99.90
2023-05-16T06:26:51.044Z,99.90
2023-05-16T06:29:17.981Z,99.90
2023-05-16T06:31:44.691Z,99.90
2023-05-16T06:34:11.665Z,99.90
2023-05-16T06:36:40.451Z,99.90
2023-05-16T06:39:07.565Z,99.90
2023-05-16T06:41:34.558Z,99.90
2023-05-16T06:44:01.530Z,99.90
2023-05-16T06:46:28.390Z,99.90
2023-05-16T06:48:55.408Z,99.90
2023-05-16T06:51:22.113Z,99.90
2023-05-16T06:53:49.092Z,99.90
2023-05-16T06:56:16.044Z,99.90
2023-05-16T06:58:42.858Z,99.90
2023-05-16T07:01:11.997Z,99.90
2023-05-16T07:03:39.059Z,99.90
2023-05-16T07:06:05.935Z,99.90
2023-05-16T07:08:33.132Z,99.90
2023-05-16T07:10:59.926Z,99.90
2023-05-16T07:13:26.821Z,99.90
2023-05-16T07:15:54.137Z,99.90
2023-05-16T07:18:20.987Z,99.90
2023-05-16T07:20:48.529Z,99.90
2023-05-16T07:23:15.419Z,99.90
2023-05-16T07:25:42.329Z,99.90
2023-05-16T07:28:09.213Z,99.90
2023-05-16T07:30:36.090Z,99.90
2023-05-16T07:33:02.992Z,99.90
2023-05-16T07:35:34.509Z,99.90
2023-05-16T07:38:01.529Z,99.90
2023-05-16T07:40:29.639Z,99.90
2023-05-16T07:42:56.765Z,99.90
2023-05-16T07:45:23.795Z,99.90
2023-05-16T07:47:50.773Z,99.90
2023-05-16T07:50:17.789Z,99.90
2023-05-16T07:52:47.012Z,99.90
2023-05-16T07:55:13.892Z,99.90
2023-05-16T07:57:40.677Z,99.90
2023-05-16T08:00:08.050Z,99.90
2023-05-16T08:02:35.043Z,99.90
2023-05-16T08:05:02.017Z,99.90
2023-05-16T08:07:29.226Z,99.90
2023-05-16T08:09:55.992Z,99.90
2023-05-16T08:12:24.161Z,99.90
2023-05-16T08:14:51.099Z,99.90
2023-05-16T08:17:17.942Z,99.90
2023-05-16T08:19:44.949Z,99.90
2023-05-16T08:22:11.930Z,99.90
2023-05-16T08:24:38.900Z,99.90
2023-05-16T08:27:06.038Z,99.90
2023-05-16T08:29:32.913Z,99.90
2023-05-16T08:31:59.928Z,99.90
2023-05-16T08:34:26.989Z,99.90
2023-05-16T08:36:54.757Z,99.90
2023-05-16T08:39:21.639Z,99.90
2023-05-16T08:41:48.570Z,99.90
2023-05-16T08:44:21.413Z,99.90
2023-05-16T08:46:53.075Z,99.90
2023-05-16T08:49:20.657Z,99.90
2023-05-16T08:51:48.239Z,99.90
2023-05-16T08:54:15.914Z,99.90
2023-05-16T08:56:46.331Z,99.90
2023-05-16T08:59:13.209Z,99.90
2023-05-16T09:01:43.178Z,99.90
2023-05-16T09:04:10.528Z,99.90
2023-05-16T09:06:37.539Z,99.90
2023-05-16T09:09:07.749Z,99.90
2023-05-16T09:11:36.949Z,99.90
2023-05-16T09:14:05.669Z,99.90
2023-05-16T09:16:32.746Z,99.90
2023-05-16T09:19:00.844Z,99.90
2023-05-16T09:21:31.437Z,99.90
2023-05-16T09:24:05.382Z,99.90
2023-05-16T09:26:33.457Z,99.90
2023-05-16T09:29:00.257Z,99.90
2023-05-16T09:31:28.125Z,99.90
2023-05-16T09:33:57.874Z,99.90
2023-05-16T09:36:26.059Z,99.70
2023-05-16T09:38:53.353Z,97.90
2023-05-16T09:41:22.163Z,95.90
2023-05-16T09:43:49.198Z,97.10
2023-05-16T09:46:16.285Z,99.90
2023-05-16T09:48:49.373Z,99.90
2023-05-16T09:51:16.443Z,99.90
2023-05-16T09:53:43.657Z,98.80
2023-05-16T09:56:11.278Z,97.40
2023-05-16T09:58:39.372Z,95.70
2023-05-16T10:01:09.198Z,96.30
2023-05-16T10:03:36.725Z,94.40
2023-05-16T10:06:04.314Z,93.10
2023-05-16T10:08:32.084Z,91.30
2023-05-16T10:10:58.929Z,92.80
2023-05-16T10:13:29.625Z,93.20
2023-05-16T10:15:57.267Z,92.80
2023-05-16T10:18:26.232Z,93.00
2023-05-16T10:20:54.231Z,91.80
2023-05-16T10:23:23.915Z,94.00
2023-05-16T10:25:51.406Z,90.20
2023-05-16T10:28:18.420Z,90.90
2023-05-16T10:30:48.954Z,91.70
2023-05-16T10:33:17.157Z,87.70
2023-05-16T10:35:44.543Z,88.30
2023-05-16T10:38:12.428Z,88.10
2023-05-16T10:40:40.488Z,90.20
2023-05-16T10:43:08.880Z,91.50
2023-05-16T10:45:40.044Z,88.10
2023-05-16T10:48:09.521Z,89.80
2023-05-16T10:50:43.729Z,86.30
2023-05-16T10:53:17.163Z,81.50
2023-05-16T10:56:01.312Z,84.20
2023-05-16T10:58:31.242Z,90.10
2023-05-16T11:01:30.203Z,90.50
2023-05-16T11:03:57.424Z,90.50
2023-05-16T11:06:27.433Z,84.90
2023-05-16T11:09:13.424Z,86.60
2023-05-16T11:11:52.871Z,86.70
2023-05-16T11:14:23.785Z,89.70
2023-05-16T11:16:51.724Z,88.80
2023-05-16T11:19:41.804Z,86.20
2023-05-16T11:22:08.814Z,90.00
2023-05-16T11:24:39.562Z,86.40
2023-05-16T11:27:06.948Z,87.10
2023-05-16T11:29:35.040Z,82.30
2023-05-16T11:32:03.434Z,83.50
2023-05-16T11:34:30.970Z,79.80
2023-05-16T11:36:58.190Z,79.60
2023-05-16T11:39:25.304Z,76.50
2023-05-16T11:41:53.655Z,76.10
2023-05-16T11:44:20.619Z,75.50
2023-05-16T11:46:47.901Z,81.10
2023-05-16T11:49:17.605Z,80.00
2023-05-16T11:51:46.255Z,77.70
2023-05-16T11:54:13.368Z,78.10
2023-05-16T11:56:42.960Z,80.20
2023-05-16T11:59:10.981Z,80.80
2023-05-16T12:01:38.738Z,83.10
2023-05-16T12:04:12.644Z,85.00
2023-05-16T12:06:48.531Z,84.70
2023-05-16T12:09:18.240Z,83.30
2023-05-16T12:11:45.567Z,80.60
2023-05-16T12:14:13.163Z,82.20
2023-05-16T12:16:42.400Z,84.30
2023-05-16T12:19:09.429Z,80.50
2023-05-16T12:21:39.173Z,83.70
2023-05-16T12:24:12.818Z,82.10
2023-05-16T12:26:41.458Z,82.00
2023-05-16T12:29:08.365Z,83.70
2023-05-16T12:31:43.934Z,82.70
2023-05-16T12:34:17.744Z,84.70
2023-05-16T12:36:46.933Z,82.40
2023-05-16T12:39:14.249Z,85.00
2023-05-16T12:41:42.896Z,89.50
2023-05-16T12:46:44.136Z,86.40
2023-05-16T12:49:11.131Z,86.20
2023-05-16T12:51:37.966Z,83.80
2023-05-16T12:54:12.036Z,82.80
2023-05-16T12:56:39.643Z,84.60
2023-05-16T12:59:06.554Z,84.80
2023-05-16T13:01:35.968Z,84.40
2023-05-16T13:04:03.172Z,82.70
2023-05-16T13:06:39.747Z,79.60
2023-05-16T13:09:16.350Z,80.30
2023-05-16T13:11:43.255Z,80.70
2023-05-16T13:16:58.391Z,83.80
2023-05-16T13:19:25.594Z,82.30
2023-05-16T13:21:52.797Z,83.40
2023-05-16T13:24:21.458Z,79.20
2023-05-16T13:26:48.283Z,77.30
2023-05-16T13:29:16.546Z,75.70
2023-05-16T13:31:43.497Z,75.90
2023-05-16T13:34:13.043Z,80.60
2023-05-16T13:36:53.966Z,82.20
2023-05-16T13:39:24.673Z,84.40
2023-05-16T13:41:51.895Z,87.10
2023-05-16T13:44:19.050Z,88.00
2023-05-16T13:46:46.144Z,87.50
2023-05-16T13:49:15.703Z,90.10
2023-05-16T13:51:42.658Z,90.40
2023-05-16T13:54:09.461Z,91.10
2023-05-16T13:56:36.321Z,92.10
2023-05-16T13:59:07.573Z,91.80
2023-05-16T14:01:34.833Z,91.30
2023-05-16T14:04:01.876Z,91.10
2023-05-16T14:06:28.852Z,91.30
2023-05-16T14:08:55.883Z,91.90
2023-05-16T14:11:29.456Z,91.80
2023-05-16T14:13:57.452Z,90.50
2023-05-16T14:16:24.506Z,90.10
2023-05-16T14:18:51.640Z,90.60
2023-05-16T14:21:18.496Z,91.60
2023-05-16T14:23:45.479Z,91.60
2023-05-16T14:26:12.251Z,91.40
2023-05-16T14:28:39.178Z,91.20
2023-05-16T14:31:06.039Z,89.90
2023-05-16T14:33:33.301Z,87.30
2023-05-16T14:36:02.564Z,83.00
2023-05-16T14:38:29.539Z,82.60
2023-05-16T14:40:56.344Z,79.00
2023-05-16T14:43:23.184Z,77.70
2023-05-16T14:45:51.983Z,79.40
2023-05-16T14:48:18.999Z,77.00
2023-05-16T14:50:46.112Z,79.30
2023-05-16T14:53:13.033Z,75.70
2023-05-16T14:55:39.947Z,76.70
2023-05-16T14:58:06.844Z,77.30
2023-05-16T15:00:33.794Z,79.30
2023-05-16T15:03:00.505Z,80.70
2023-05-16T15:05:29.283Z,81.00
2023-05-16T15:07:56.206Z,83.00
2023-05-16T15:10:25.627Z,79.80
2023-05-16T15:12:52.971Z,80.10
2023-05-16T15:15:19.864Z,77.00
2023-05-16T15:17:46.868Z,80.00
2023-05-16T15:20:13.898Z,80.20
2023-05-16T15:22:41.445Z,77.10
2023-05-16T15:25:09.183Z,73.60
2023-05-16T15:27:38.063Z,73.60
2023-05-16T15:30:05.088Z,77.90
2023-05-16T15:32:31.963Z,78.60
2023-05-16T15:34:58.867Z,78.80
2023-05-16T15:37:26.350Z,80.20
2023-05-16T15:39:53.263Z,80.80
2023-05-16T15:42:21.401Z,80.80
2023-05-16T15:47:34.237Z,81.50
2023-05-16T15:50:01.175Z,83.20
2023-05-16T15:52:32.788Z,83.40
2023-05-16T15:54:59.701Z,80.90
2023-05-16T15:57:26.951Z,79.60
2023-05-16T15:59:53.827Z,77.80
2023-05-16T16:02:23.189Z,77.10
2023-05-16T16:04:51.762Z,79.10
2023-05-16T16:07:18.691Z,79.10
2023-05-16T16:09:47.737Z,77.10
2023-05-16T16:12:14.820Z,79.60
2023-05-16T16:14:41.599Z,80.90
2023-05-16T16:17:08.759Z,81.60
2023-05-16T16:19:35.696Z,83.00
2023-05-16T16:22:02.659Z,84.50
2023-05-16T16:24:29.681Z,84.60
2023-05-16T16:26:56.428Z,85.40
2023-05-16T16:29:23.616Z,87.30
2023-05-16T16:31:50.786Z,86.30
2023-05-16T16:34:17.663Z,86.90
2023-05-16T16:36:44.732Z,87.90
2023-05-16T16:39:11.732Z,87.80
2023-05-16T16:41:38.774Z,84.20
2023-05-16T16:44:05.631Z,84.60
2023-05-16T16:46:32.625Z,84.70
2023-05-16T16:48:59.504Z,82.50
2023-05-16T16:51:26.973Z,81.60
2023-05-16T16:53:57.920Z,79.60
2023-05-16T16:56:29.449Z,80.40
2023-05-16T16:58:56.609Z,82.80
2023-05-16T17:01:23.632Z,86.00
2023-05-16T17:03:50.344Z,87.60
2023-05-16T17:06:17.188Z,89.40
2023-05-16T17:08:45.381Z,88.20
2023-05-16T17:11:12.292Z,89.70
2023-05-16T17:13:41.898Z,90.10
2023-05-16T17:16:11.447Z,90.30
2023-05-16T17:18:40.600Z,88.70
2023-05-16T17:21:09.272Z,89.70
2023-05-16T17:23:36.051Z,89.40
2023-05-16T17:26:02.967Z,89.70
2023-05-16T17:28:31.406Z,89.20
2023-05-16T17:30:58.285Z,89.20
2023-05-16T17:33:25.092Z,89.20
2023-05-16T17:35:52.671Z,89.40
2023-05-16T17:38:19.575Z,90.10
2023-05-16T17:40:46.541Z,90.40
2023-05-16T17:43:16.239Z,91.50
2023-05-16T17:45:45.671Z,92.40
2023-05-16T17:48:12.849Z,92.90
2023-05-16T17:50:39.958Z,93.30
2023-05-16T17:53:07.813Z,94.40
2023-05-16T17:55:36.148Z,95.20
2023-05-16T17:58:06.584Z,95.60
2023-05-16T18:00:33.580Z,96.20
2023-05-16T18:03:00.705Z,96.00
2023-05-16T18:05:28.662Z,95.80
2023-05-16T18:07:55.554Z,96.60
2023-05-16T18:10:22.468Z,97.10
2023-05-16T18:12:49.313Z,97.20
2023-05-16T18:15:16.293Z,97.50
2023-05-16T18:17:43.237Z,98.10
2023-05-16T18:20:11.571Z,98.80
2023-05-16T18:22:41.083Z,99.30
2023-05-16T18:25:09.536Z,99.00
2023-05-16T18:27:37.138Z,99.00
2023-05-16T18:30:04.915Z,98.70
2023-05-16T18:32:31.972Z,97.70
2023-05-16T18:34:58.890Z,97.90
2023-05-16T18:37:25.857Z,97.40
2023-05-16T18:39:52.712Z,97.60
2023-05-16T18:42:19.622Z,97.70
2023-05-16T18:44:46.588Z,97.80
2023-05-16T18:47:15.812Z,98.50
2023-05-16T18:49:43.375Z,98.60
2023-05-16T18:52:10.851Z,98.60
2023-05-16T18:54:38.353Z,99.00
2023-05-16T18:57:08.065Z,99.40
2023-05-16T18:59:35.029Z,99.80
2023-05-16T19:02:01.939Z,99.90
2023-05-16T19:04:28.921Z,99.20
2023-05-16T19:07:03.082Z,99.70
2023-05-16T19:09:34.095Z,99.60
2023-05-16T19:12:00.972Z,99.80
2023-05-16T19:14:28.020Z,99.90
2023-05-16T19:16:54.844Z,99.90
2023-05-16T19:19:21.911Z,99.90
2023-05-16T19:21:49.175Z,99.90
2023-05-16T19:24:16.098Z,99.90
2023-05-16T19:26:43.007Z,99.90
2023-05-16T19:29:10.800Z,99.90
2023-05-16T19:31:37.579Z,99.90
2023-05-16T19:34:05.214Z,99.90
2023-05-16T19:36:33.792Z,99.90
2023-05-16T19:39:00.730Z,99.90
2023-05-16T19:41:27.675Z,99.90
2023-05-16T19:43:54.511Z,99.90
2023-05-16T19:46:21.411Z,99.90
2023-05-16T19:48:50.340Z,99.90
2023-05-16T19:51:23.772Z,99.90
2023-05-16T19:53:56.564Z,99.90
2023-05-16T19:56:23.358Z,99.90
2023-05-16T19:58:50.117Z,99.90
2023-05-16T20:01:17.068Z,99.90
2023-05-16T20:03:44.002Z,99.90
2023-05-16T20:06:10.944Z,99.90
2023-05-16T20:08:37.730Z,99.90
2023-05-16T20:11:04.691Z,99.90
2023-05-16T20:13:32.082Z,99.90
2023-05-16T20:15:59.102Z,99.90
2023-05-16T20:18:26.757Z,99.90
2023-05-16T20:20:53.682Z,99.90
2023-05-16T20:23:21.612Z,99.90
2023-05-16T20:25:48.549Z,99.90
2023-05-16T20:28:15.462Z,99.90
2023-05-16T20:30:42.182Z,99.90
2023-05-16T20:33:09.031Z,99.90
2023-05-16T20:35:36.077Z,99.90
2023-05-16T20:38:42.740Z,99.90
2023-05-16T20:41:07.046Z,99.90
2023-05-16T20:43:33.900Z,99.90
2023-05-16T20:46:04.044Z,99.90
2023-05-16T20:48:33.549Z,99.90
2023-05-16T20:51:01.462Z,99.90
2023-05-16T20:53:28.336Z,99.90
2023-05-16T20:55:57.918Z,99.90
2023-05-16T20:58:24.885Z,99.90
2023-05-16T21:00:51.827Z,99.90
2023-05-16T21:03:18.759Z,99.90
2023-05-16T21:05:45.620Z,99.90
2023-05-16T21:08:12.544Z,99.90
2023-05-16T21:10:39.358Z,99.90
2023-05-16T21:13:06.311Z,99.90
2023-05-16T21:15:33.180Z,99.90
2023-05-16T21:18:00.217Z,99.90
2023-05-16T21:20:30.023Z,99.90
2023-05-16T21:22:57.165Z,99.90
2023-05-16T21:25:26.614Z,99.90
2023-05-16T21:27:53.830Z,99.90
2023-05-16T21:30:20.683Z,99.90
2023-05-16T21:32:47.683Z,99.90
2023-05-16T21:35:14.648Z,99.90
2023-05-16T21:37:41.497Z,99.90
2023-05-16T21:40:09.504Z,99.90
2023-05-16T21:42:36.610Z,99.90
2023-05-16T21:45:03.645Z,99.90
2023-05-16T21:47:30.616Z,99.90
2023-05-16T21:49:57.451Z,99.90
2023-05-16T21:52:24.415Z,99.90
2023-05-16T21:54:52.003Z,99.90
2023-05-16T21:57:19.568Z,99.90
2023-05-16T21:59:46.403Z,99.90
2023-05-16T22:02:16.107Z,99.90
2023-05-16T22:04:42.912Z,99.90
2023-05-16T22:07:09.784Z,99.90
2023-05-16T22:09:36.722Z,99.90
2023-05-16T22:12:03.546Z,99.90
2023-05-16T22:14:30.408Z,99.90
2023-05-16T22:16:57.247Z,99.90
2023-05-16T22:19:24.728Z,99.90
2023-05-16T22:21:53.023Z,99.90
2023-05-16T22:24:19.882Z,99.90
2023-05-16T22:26:46.758Z,99.90
2023-05-16T22:29:13.622Z,99.90
2023-05-16T22:31:40.492Z,99.90
2023-05-16T22:34:07.457Z,99.90
2023-05-16T22:36:34.502Z,99.90
2023-05-16T22:39:04.308Z,99.90
2023-05-16T22:41:34.144Z,99.90
2023-05-16T22:44:01.079Z,99.90
2023-05-16T22:46:28.086Z,99.90
2023-05-16T22:48:55.209Z,99.90
2023-05-16T22:51:22.090Z,99.90
2023-05-16T22:53:49.004Z,99.90
2023-05-16T22:56:16.102Z,99.90
2023-05-16T22:58:42.781Z,99.90
2023-05-16T23:01:12.037Z,99.90
2023-05-16T23:03:38.989Z,99.90
2023-05-16T23:06:08.200Z,99.90
2023-05-16T23:08:35.080Z,99.90
2023-05-16T23:11:01.962Z,99.90
2023-05-16T23:13:31.364Z,99.90
2023-05-16T23:15:58.153Z,99.90
2023-05-16T23:18:25.036Z,99.90
2023-05-16T23:20:52.003Z,99.90
2023-05-16T23:23:18.906Z,99.90
2023-05-16T23:25:46.377Z,99.90
2023-05-16T23:28:14.962Z,99.90
2023-05-16T23:30:41.865Z,99.90
2023-05-16T23:33:08.839Z,99.90
2023-05-16T23:35:35.829Z,99.90
2023-05-16T23:38:02.693Z,99.90
2023-05-16T23:40:29.459Z,99.90
2023-05-16T23:42:56.477Z,99.90
2023-05-16T23:45:23.254Z,99.90
2023-05-16T23:47:50.256Z,99.90
2023-05-16T23:50:17.439Z,99.90
2023-05-16T23:52:44.334Z,99.90
2023-05-16T23:55:11.343Z,99.90
2023-05-16T23:57:41.022Z,99.90
